sensor_id;sensor_type;location;lat;lon;timestamp;temperature;humidity
9808;DHT22;4943;52.550;13.462;2023-01-20T00:01:30;5.60;99.90
9808;DHT22;4943;52.550;13.462;2023-01-20T00:03:59;5.60;99.90
9808;DHT22;4943;52.550;13.462;2023-01-20T00:06:27;5.60;99.90
9808;DHT22;4943;52.550;13.462;2023-01-20T00:08:57;5.60;99.90
9808;DHT22;4943;52.550;13.462;2023-01-20T00:11:41;5.60;99.90
9808;DHT22;4943;52.550;13.462;2023-01-20T00:14:10;5.60;99.90
9808;DHT22;4943;52.550;13.462;2023-01-20T00:16:40;5.60;99.90
9808;DHT22;4943;52.550;13.462;2023-01-20T00:19:08;5.60;99.90
9808;DHT22;4943;52.550;13.462;2023-01-20T00:21:37;5.50;99.90
9808;DHT22;4943;52.550;13.462;2023-01-20T00:24:06;5.50;99.90
9808;DHT22;4943;52.550;13.462;2023-01-20T00:26:34;5.50;99.90
9808;DHT22;4943;52.550;13.462;2023-01-20T00:29:02;5.50;99.90
9808;DHT22;4943;52.550;13.462;2023-01-20T00:31:31;5.50;99.90
9808;DHT22;4943;52.550;13.462;2023-01-20T00:34:02;5.40;99.90
9808;DHT22;4943;52.550;13.462;2023-01-20T00:36:31;5.50;99.90
9808;DHT22;4943;52.550;13.462;2023-01-20T00:39:00;5.50;99.90
9808;DHT22;4943;52.550;13.462;2023-01-20T00:41:29;5.50;99.90
9808;DHT22;4943;52.550;13.462;2023-01-20T00:43:57;5.40;99.90
9808;DHT22;4943;52.550;13.462;2023-01-20T00:46:26;5.50;99.90
9808;DHT22;4943;52.550;13.462;2023-01-20T00:48:54;5.50;99.90
9808;DHT22;4943;52.550;13.462;2023-01-20T00:51:24;5.50;99.90
9808;DHT22;4943;52.550;13.462;2023-01-20T00:53:52;5.50;99.90
9808;DHT22;4943;52.550;13.462;2023-01-20T00:56:20;5.50;99.90
9808;DHT22;4943;52.550;13.462;2023-01-20T00:58:48;5.50;99.90
9808;DHT22;4943;52.550;13.462;2023-01-20T01:01:16;5.50;99.90
9808;DHT22;4943;52.550;13.462;2023-01-20T01:03:44;5.50;99.90
9808;DHT22;4943;52.550;13.462;2023-01-20T01:06:14;5.50;99.90
9808;DHT22;4943;52.550;13.462;2023-01-20T01:08:44;5.50;99.90
9808;DHT22;4943;52.550;13.462;2023-01-20T01:11:12;5.50;99.90
9808;DHT22;4943;52.550;13.462;2023-01-20T01:13:40;5.40;99.90
9808;DHT22;4943;52.550;13.462;2023-01-20T01:16:10;5.40;99.90
9808;DHT22;4943;52.550;13.462;2023-01-20T01:18:39;5.40;99.90
9808;DHT22;4943;52.550;13.462;2023-01-20T01:21:09;5.40;99.90
9808;DHT22;4943;52.550;13.462;2023-01-20T01:23:37;5.30;99.90
9808;DHT22;4943;52.550;13.462;2023-01-20T01:26:07;5.30;99.90
9808;DHT22;4943;52.550;13.462;2023-01-20T01:28:35;5.20;99.90
9808;DHT22;4943;52.550;13.462;2023-01-20T01:31:05;5.20;99.90
9808;DHT22;4943;52.550;13.462;2023-01-20T01:33:35;5.20;99.90
9808;DHT22;4943;52.550;13.462;2023-01-20T01:36:04;5.20;99.90
9808;DHT22;4943;52.550;13.462;2023-01-20T01:38:34;5.10;99.90
9808;DHT22;4943;52.550;13.462;2023-01-20T01:41:02;5.10;99.90
9808;DHT22;4943;52.550;13.462;2023-01-20T01:43:33;5.10;99.90
9808;DHT22;4943;52.550;13.462;2023-01-20T01:46:02;5.10;99.90
9808;DHT22;4943;52.550;13.462;2023-01-20T01:48:35;5.10;99.90
9808;DHT22;4943;52.550;13.462;2023-01-20T01:51:08;5.10;99.90
9808;DHT22;4943;52.550;13.462;2023-01-20T01:53:40;5.10;99.90
9808;DHT22;4943;52.550;13.462;2023-01-20T01:56:10;5.10;99.90
9808;DHT22;4943;52.550;13.462;2023-01-20T01:58:44;5.10;99.90
9808;DHT22;4943;52.550;13.462;2023-01-20T02:01:13;5.10;99.90
9808;DHT22;4943;52.550;13.462;2023-01-20T02:03:43;5.00;99.90
9808;DHT22;4943;52.550;13.462;2023-01-20T02:06:15;5.00;99.90
9808;DHT22;4943;52.550;13.462;2023-01-20T02:08:44;5.00;99.90
9808;DHT22;4943;52.550;13.462;2023-01-20T02:11:13;5.00;99.90
9808;DHT22;4943;52.550;13.462;2023-01-20T02:13:42;4.90;99.90
9808;DHT22;4943;52.550;13.462;2023-01-20T02:16:16;4.90;99.90
9808;DHT22;4943;52.550;13.462;2023-01-20T02:18:56;4.90;99.90
9808;DHT22;4943;52.550;13.462;2023-01-20T02:21:51;4.90;99.90
9808;DHT22;4943;52.550;13.462;2023-01-20T02:24:40;4.90;99.90
9808;DHT22;4943;52.550;13.462;2023-01-20T02:27:15;4.80;99.90
9808;DHT22;4943;52.550;13.462;2023-01-20T02:30:13;4.90;99.90
9808;DHT22;4943;52.550;13.462;2023-01-20T02:32:55;4.90;99.90
9808;DHT22;4943;52.550;13.462;2023-01-20T02:35:26;4.90;99.90
9808;DHT22;4943;52.550;13.462;2023-01-20T02:38:07;4.90;99.90
9808;DHT22;4943;52.550;13.462;2023-01-20T02:40:45;5.00;99.90
9808;DHT22;4943;52.550;13.462;2023-01-20T02:43:19;5.00;99.90
9808;DHT22;4943;52.550;13.462;2023-01-20T02:45:55;5.00;99.90
9808;DHT22;4943;52.550;13.462;2023-01-20T02:48:32;5.00;99.90
9808;DHT22;4943;52.550;13.462;2023-01-20T02:51:05;5.00;99.90
9808;DHT22;4943;52.550;13.462;2023-01-20T02:53:42;5.10;99.90
9808;DHT22;4943;52.550;13.462;2023-01-20T02:56:11;5.10;99.90
9808;DHT22;4943;52.550;13.462;2023-01-20T02:58:45;5.20;99.90
9808;DHT22;4943;52.550;13.462;2023-01-20T03:01:18;5.20;99.90
9808;DHT22;4943;52.550;13.462;2023-01-20T03:03:51;5.20;99.90
9808;DHT22;4943;52.550;13.462;2023-01-20T03:06:24;5.20;99.90
9808;DHT22;4943;52.550;13.462;2023-01-20T03:08:56;5.20;99.90
9808;DHT22;4943;52.550;13.462;2023-01-20T03:11:25;5.20;99.90
9808;DHT22;4943;52.550;13.462;2023-01-20T03:13:58;5.20;99.90
9808;DHT22;4943;52.550;13.462;2023-01-20T03:16:29;5.30;99.90
9808;DHT22;4943;52.550;13.462;2023-01-20T03:18:59;5.30;99.90
9808;DHT22;4943;52.550;13.462;2023-01-20T03:21:27;5.20;99.90
9808;DHT22;4943;52.550;13.462;2023-01-20T03:24:00;5.20;99.90
9808;DHT22;4943;52.550;13.462;2023-01-20T03:26:29;5.20;99.90
9808;DHT22;4943;52.550;13.462;2023-01-20T03:28:57;5.10;99.90
9808;DHT22;4943;52.550;13.462;2023-01-20T03:31:28;5.10;99.90
9808;DHT22;4943;52.550;13.462;2023-01-20T03:34:00;5.10;99.90
9808;DHT22;4943;52.550;13.462;2023-01-20T03:36:30;5.10;99.90
9808;DHT22;4943;52.550;13.462;2023-01-20T03:38:59;5.10;99.90
9808;DHT22;4943;52.550;13.462;2023-01-20T03:41:34;5.10;99.90
9808;DHT22;4943;52.550;13.462;2023-01-20T03:44:10;5.10;99.90
9808;DHT22;4943;52.550;13.462;2023-01-20T03:46:43;5.10;99.90
9808;DHT22;4943;52.550;13.462;2023-01-20T03:49:21;5.20;99.90
9808;DHT22;4943;52.550;13.462;2023-01-20T03:51:58;5.20;99.90
9808;DHT22;4943;52.550;13.462;2023-01-20T03:54:33;5.20;99.90
9808;DHT22;4943;52.550;13.462;2023-01-20T03:57:08;5.20;99.90
9808;DHT22;4943;52.550;13.462;2023-01-20T03:59:39;5.20;99.90
9808;DHT22;4943;52.550;13.462;2023-01-20T04:02:10;5.20;99.90
9808;DHT22;4943;52.550;13.462;2023-01-20T04:04:41;5.30;99.90
9808;DHT22;4943;52.550;13.462;2023-01-20T04:07:13;5.30;99.90
9808;DHT22;4943;52.550;13.462;2023-01-20T04:09:47;5.20;99.90
9808;DHT22;4943;52.550;13.462;2023-01-20T04:12:17;5.20;99.90
9808;DHT22;4943;52.550;13.462;2023-01-20T04:14:46;5.20;99.90
9808;DHT22;4943;52.550;13.462;2023-01-20T04:17:14;5.30;99.90
9808;DHT22;4943;52.550;13.462;2023-01-20T04:19:44;5.20;99.90
9808;DHT22;4943;52.550;13.462;2023-01-20T04:22:16;5.30;99.90
9808;DHT22;4943;52.550;13.462;2023-01-20T04:24:49;5.20;99.90
9808;DHT22;4943;52.550;13.462;2023-01-20T04:27:19;5.30;99.90
9808;DHT22;4943;52.550;13.462;2023-01-20T04:29:47;5.30;99.90
9808;DHT22;4943;52.550;13.462;2023-01-20T04:32:15;5.20;99.90
9808;DHT22;4943;52.550;13.462;2023-01-20T04:34:45;5.20;99.90
9808;DHT22;4943;52.550;13.462;2023-01-20T04:37:13;5.20;99.90
9808;DHT22;4943;52.550;13.462;2023-01-20T04:39:41;5.20;99.90
9808;DHT22;4943;52.550;13.462;2023-01-20T04:42:10;5.30;99.90
9808;DHT22;4943;52.550;13.462;2023-01-20T04:44:38;5.20;99.90
9808;DHT22;4943;52.550;13.462;2023-01-20T04:47:06;5.30;99.90
9808;DHT22;4943;52.550;13.462;2023-01-20T04:49:34;5.20;99.90
9808;DHT22;4943;52.550;13.462;2023-01-20T04:52:04;5.30;99.90
9808;DHT22;4943;52.550;13.462;2023-01-20T04:54:32;5.30;99.90
9808;DHT22;4943;52.550;13.462;2023-01-20T04:57:00;5.30;99.90
9808;DHT22;4943;52.550;13.462;2023-01-20T04:59:28;5.30;99.90
9808;DHT22;4943;52.550;13.462;2023-01-20T05:01:56;5.30;99.90
9808;DHT22;4943;52.550;13.462;2023-01-20T05:04:25;5.30;99.90
9808;DHT22;4943;52.550;13.462;2023-01-20T05:06:53;5.30;99.90
9808;DHT22;4943;52.550;13.462;2023-01-20T05:09:22;5.30;99.90
9808;DHT22;4943;52.550;13.462;2023-01-20T05:11:50;5.30;99.90
9808;DHT22;4943;52.550;13.462;2023-01-20T05:14:19;5.30;99.90
9808;DHT22;4943;52.550;13.462;2023-01-20T05:16:47;5.20;99.90
9808;DHT22;4943;52.550;13.462;2023-01-20T05:19:15;5.20;99.90
9808;DHT22;4943;52.550;13.462;2023-01-20T05:21:43;5.10;99.90
9808;DHT22;4943;52.550;13.462;2023-01-20T05:24:11;5.10;99.90
9808;DHT22;4943;52.550;13.462;2023-01-20T05:26:41;5.00;99.90
9808;DHT22;4943;52.550;13.462;2023-01-20T05:29:09;5.00;99.90
9808;DHT22;4943;52.550;13.462;2023-01-20T05:31:37;4.90;99.90
9808;DHT22;4943;52.550;13.462;2023-01-20T05:34:09;5.00;99.90
9808;DHT22;4943;52.550;13.462;2023-01-20T05:36:38;5.00;99.90
9808;DHT22;4943;52.550;13.462;2023-01-20T05:39:06;4.90;99.90
9808;DHT22;4943;52.550;13.462;2023-01-20T05:41:34;4.90;99.90
9808;DHT22;4943;52.550;13.462;2023-01-20T05:44:03;4.90;99.90
9808;DHT22;4943;52.550;13.462;2023-01-20T05:46:32;4.90;99.90
9808;DHT22;4943;52.550;13.462;2023-01-20T05:49:00;4.90;99.90
9808;DHT22;4943;52.550;13.462;2023-01-20T05:51:29;4.90;99.90
9808;DHT22;4943;52.550;13.462;2023-01-20T05:53:57;4.90;99.90
9808;DHT22;4943;52.550;13.462;2023-01-20T05:56:26;4.90;99.90
9808;DHT22;4943;52.550;13.462;2023-01-20T05:58:54;4.90;99.90
9808;DHT22;4943;52.550;13.462;2023-01-20T06:01:24;4.90;99.90
9808;DHT22;4943;52.550;13.462;2023-01-20T06:03:52;5.00;99.90
9808;DHT22;4943;52.550;13.462;2023-01-20T06:06:20;5.00;99.90
9808;DHT22;4943;52.550;13.462;2023-01-20T06:08:51;5.00;99.90
9808;DHT22;4943;52.550;13.462;2023-01-20T06:11:19;5.00;99.90
9808;DHT22;4943;52.550;13.462;2023-01-20T06:13:48;5.00;99.90
9808;DHT22;4943;52.550;13.462;2023-01-20T06:16:17;5.00;99.90
9808;DHT22;4943;52.550;13.462;2023-01-20T06:18:47;5.00;99.90
9808;DHT22;4943;52.550;13.462;2023-01-20T06:21:15;5.00;99.90
9808;DHT22;4943;52.550;13.462;2023-01-20T06:23:43;5.00;99.90
9808;DHT22;4943;52.550;13.462;2023-01-20T06:26:12;5.00;99.90
9808;DHT22;4943;52.550;13.462;2023-01-20T06:28:41;5.00;99.90
9808;DHT22;4943;52.550;13.462;2023-01-20T06:31:11;5.00;99.90
9808;DHT22;4943;52.550;13.462;2023-01-20T06:33:40;4.90;99.90
9808;DHT22;4943;52.550;13.462;2023-01-20T06:36:10;4.90;99.90
9808;DHT22;4943;52.550;13.462;2023-01-20T06:38:41;4.90;99.90
9808;DHT22;4943;52.550;13.462;2023-01-20T06:41:14;4.80;99.90
9808;DHT22;4943;52.550;13.462;2023-01-20T06:43:42;4.80;99.90
9808;DHT22;4943;52.550;13.462;2023-01-20T06:46:12;4.80;99.90
9808;DHT22;4943;52.550;13.462;2023-01-20T06:48:41;4.80;99.90
9808;DHT22;4943;52.550;13.462;2023-01-20T06:51:13;4.80;99.90
9808;DHT22;4943;52.550;13.462;2023-01-20T06:53:42;4.70;99.90
9808;DHT22;4943;52.550;13.462;2023-01-20T06:56:10;4.70;99.90
9808;DHT22;4943;52.550;13.462;2023-01-20T06:58:39;4.70;99.90
9808;DHT22;4943;52.550;13.462;2023-01-20T07:01:10;4.70;99.90
9808;DHT22;4943;52.550;13.462;2023-01-20T07:03:40;4.80;99.90
9808;DHT22;4943;52.550;13.462;2023-01-20T07:06:15;4.70;99.90
9808;DHT22;4943;52.550;13.462;2023-01-20T07:08:44;4.70;99.90
9808;DHT22;4943;52.550;13.462;2023-01-20T07:11:12;4.70;99.90
9808;DHT22;4943;52.550;13.462;2023-01-20T07:13:40;4.70;99.90
9808;DHT22;4943;52.550;13.462;2023-01-20T07:16:09;4.70;99.90
9808;DHT22;4943;52.550;13.462;2023-01-20T07:18:41;4.80;99.90
9808;DHT22;4943;52.550;13.462;2023-01-20T07:21:11;4.80;99.90
9808;DHT22;4943;52.550;13.462;2023-01-20T07:23:41;4.80;99.90
9808;DHT22;4943;52.550;13.462;2023-01-20T07:26:10;4.90;99.90
9808;DHT22;4943;52.550;13.462;2023-01-20T07:28:38;4.90;99.90
9808;DHT22;4943;52.550;13.462;2023-01-20T07:31:08;4.90;99.90
9808;DHT22;4943;52.550;13.462;2023-01-20T07:33:37;4.90;99.90
9808;DHT22;4943;52.550;13.462;2023-01-20T07:36:06;4.90;99.90
9808;DHT22;4943;52.550;13.462;2023-01-20T07:38:34;5.00;99.90
9808;DHT22;4943;52.550;13.462;2023-01-20T07:41:06;5.00;99.90
9808;DHT22;4943;52.550;13.462;2023-01-20T07:43:36;5.00;99.90
9808;DHT22;4943;52.550;13.462;2023-01-20T07:46:04;5.00;99.90
9808;DHT22;4943;52.550;13.462;2023-01-20T07:48:33;5.00;99.90
9808;DHT22;4943;52.550;13.462;2023-01-20T07:51:02;4.90;99.90
9808;DHT22;4943;52.550;13.462;2023-01-20T07:53:33;4.90;99.90
9808;DHT22;4943;52.550;13.462;2023-01-20T07:56:04;4.90;99.90
9808;DHT22;4943;52.550;13.462;2023-01-20T07:58:33;4.90;99.90
9808;DHT22;4943;52.550;13.462;2023-01-20T08:01:08;4.90;99.90
9808;DHT22;4943;52.550;13.462;2023-01-20T08:03:36;4.90;99.90
9808;DHT22;4943;52.550;13.462;2023-01-20T08:06:06;4.90;99.90
9808;DHT22;4943;52.550;13.462;2023-01-20T08:08:35;4.90;99.90
9808;DHT22;4943;52.550;13.462;2023-01-20T08:11:06;4.90;99.90
9808;DHT22;4943;52.550;13.462;2023-01-20T08:13:34;4.90;99.90
9808;DHT22;4943;52.550;13.462;2023-01-20T08:16:05;4.90;99.90
9808;DHT22;4943;52.550;13.462;2023-01-20T08:18:34;4.90;99.90
9808;DHT22;4943;52.550;13.462;2023-01-20T08:21:04;5.00;99.90
9808;DHT22;4943;52.550;13.462;2023-01-20T08:23:34;4.90;99.90
9808;DHT22;4943;52.550;13.462;2023-01-20T08:26:05;4.90;99.90
9808;DHT22;4943;52.550;13.462;2023-01-20T08:28:34;4.90;99.90
9808;DHT22;4943;52.550;13.462;2023-01-20T08:31:05;5.00;99.90
9808;DHT22;4943;52.550;13.462;2023-01-20T08:33:33;5.00;99.90
9808;DHT22;4943;52.550;13.462;2023-01-20T08:36:06;5.00;99.90
9808;DHT22;4943;52.550;13.462;2023-01-20T08:38:35;5.10;99.90
9808;DHT22;4943;52.550;13.462;2023-01-20T08:41:08;5.00;99.90
9808;DHT22;4943;52.550;13.462;2023-01-20T08:43:36;5.10;99.90
9808;DHT22;4943;52.550;13.462;2023-01-20T08:46:08;5.10;99.90
9808;DHT22;4943;52.550;13.462;2023-01-20T08:48:38;5.10;99.90
9808;DHT22;4943;52.550;13.462;2023-01-20T08:51:09;5.10;99.90
9808;DHT22;4943;52.550;13.462;2023-01-20T08:53:40;5.20;99.90
9808;DHT22;4943;52.550;13.462;2023-01-20T08:56:10;5.20;99.90
9808;DHT22;4943;52.550;13.462;2023-01-20T08:58:39;5.20;99.90
9808;DHT22;4943;52.550;13.462;2023-01-20T09:01:08;5.20;99.90
9808;DHT22;4943;52.550;13.462;2023-01-20T09:03:37;5.20;99.90
9808;DHT22;4943;52.550;13.462;2023-01-20T09:06:07;5.20;99.90
9808;DHT22;4943;52.550;13.462;2023-01-20T09:08:35;5.20;99.90
9808;DHT22;4943;52.550;13.462;2023-01-20T09:11:05;5.20;99.90
9808;DHT22;4943;52.550;13.462;2023-01-20T09:13:35;5.20;99.90
9808;DHT22;4943;52.550;13.462;2023-01-20T09:16:04;5.20;99.90
9808;DHT22;4943;52.550;13.462;2023-01-20T09:18:33;5.30;99.90
9808;DHT22;4943;52.550;13.462;2023-01-20T09:21:03;5.30;99.90
9808;DHT22;4943;52.550;13.462;2023-01-20T09:23:33;5.30;99.90
9808;DHT22;4943;52.550;13.462;2023-01-20T09:26:02;5.30;99.90
9808;DHT22;4943;52.550;13.462;2023-01-20T09:28:31;5.30;99.90
9808;DHT22;4943;52.550;13.462;2023-01-20T09:31:02;5.30;99.90
9808;DHT22;4943;52.550;13.462;2023-01-20T09:33:32;5.30;99.90
9808;DHT22;4943;52.550;13.462;2023-01-20T09:36:02;5.30;99.90
9808;DHT22;4943;52.550;13.462;2023-01-20T09:38:30;5.30;99.90
9808;DHT22;4943;52.550;13.462;2023-01-20T09:41:17;5.30;99.90
9808;DHT22;4943;52.550;13.462;2023-01-20T09:44:19;5.30;99.90
9808;DHT22;4943;52.550;13.462;2023-01-20T09:47:06;5.20;99.90
9808;DHT22;4943;52.550;13.462;2023-01-20T09:50:00;5.20;99.90
9808;DHT22;4943;52.550;13.462;2023-01-20T09:52:47;5.20;99.90
9808;DHT22;4943;52.550;13.462;2023-01-20T09:55:38;5.10;99.90
9808;DHT22;4943;52.550;13.462;2023-01-20T09:58:19;5.10;99.90
9808;DHT22;4943;52.550;13.462;2023-01-20T10:00:51;5.20;99.90
9808;DHT22;4943;52.550;13.462;2023-01-20T10:03:28;5.20;99.90
9808;DHT22;4943;52.550;13.462;2023-01-20T10:06:07;5.20;99.90
9808;DHT22;4943;52.550;13.462;2023-01-20T10:08:42;5.30;99.90
9808;DHT22;4943;52.550;13.462;2023-01-20T10:11:32;5.40;99.90
9808;DHT22;4943;52.550;13.462;2023-01-20T10:14:06;5.40;99.90
9808;DHT22;4943;52.550;13.462;2023-01-20T10:16:39;5.50;99.90
9808;DHT22;4943;52.550;13.462;2023-01-20T10:19:18;5.50;99.90
9808;DHT22;4943;52.550;13.462;2023-01-20T10:21:50;5.50;99.90
9808;DHT22;4943;52.550;13.462;2023-01-20T10:24:27;5.60;99.90
9808;DHT22;4943;52.550;13.462;2023-01-20T10:26:59;5.70;99.90
9808;DHT22;4943;52.550;13.462;2023-01-20T10:29:33;5.70;99.90
9808;DHT22;4943;52.550;13.462;2023-01-20T10:32:04;5.70;99.90
9808;DHT22;4943;52.550;13.462;2023-01-20T10:34:40;5.80;99.90
9808;DHT22;4943;52.550;13.462;2023-01-20T10:37:11;5.80;99.90
9808;DHT22;4943;52.550;13.462;2023-01-20T10:39:45;5.80;99.90
9808;DHT22;4943;52.550;13.462;2023-01-20T10:42:16;5.80;99.90
9808;DHT22;4943;52.550;13.462;2023-01-20T10:44:45;5.80;99.90
9808;DHT22;4943;52.550;13.462;2023-01-20T10:47:17;5.80;99.90
9808;DHT22;4943;52.550;13.462;2023-01-20T10:50:18;5.80;99.90
9808;DHT22;4943;52.550;13.462;2023-01-20T10:53:13;5.80;99.90
9808;DHT22;4943;52.550;13.462;2023-01-20T10:55:57;5.80;99.90
9808;DHT22;4943;52.550;13.462;2023-01-20T10:58:31;5.80;99.90
9808;DHT22;4943;52.550;13.462;2023-01-20T11:01:03;5.70;99.90
9808;DHT22;4943;52.550;13.462;2023-01-20T11:03:36;5.80;99.90
9808;DHT22;4943;52.550;13.462;2023-01-20T11:06:10;5.80;99.90
9808;DHT22;4943;52.550;13.462;2023-01-20T11:08:41;5.80;99.90
9808;DHT22;4943;52.550;13.462;2023-01-20T11:11:12;5.80;99.90
9808;DHT22;4943;52.550;13.462;2023-01-20T11:13:42;5.80;99.90
9808;DHT22;4943;52.550;13.462;2023-01-20T11:16:13;5.90;99.90
9808;DHT22;4943;52.550;13.462;2023-01-20T11:18:55;5.90;99.90
9808;DHT22;4943;52.550;13.462;2023-01-20T11:21:26;5.90;99.90
9808;DHT22;4943;52.550;13.462;2023-01-20T11:23:55;5.90;99.90
9808;DHT22;4943;52.550;13.462;2023-01-20T11:26:25;6.00;99.90
9808;DHT22;4943;52.550;13.462;2023-01-20T11:28:56;6.00;99.90
9808;DHT22;4943;52.550;13.462;2023-01-20T11:31:35;6.00;99.90
9808;DHT22;4943;52.550;13.462;2023-01-20T11:34:20;6.00;99.90
9808;DHT22;4943;52.550;13.462;2023-01-20T11:36:50;6.00;99.90
9808;DHT22;4943;52.550;13.462;2023-01-20T11:39:42;6.00;99.90
9808;DHT22;4943;52.550;13.462;2023-01-20T11:42:14;6.00;99.90
9808;DHT22;4943;52.550;13.462;2023-01-20T11:44:43;6.00;99.90
9808;DHT22;4943;52.550;13.462;2023-01-20T11:47:20;5.90;99.90
9808;DHT22;4943;52.550;13.462;2023-01-20T11:50:18;5.80;99.90
9808;DHT22;4943;52.550;13.462;2023-01-20T11:52:51;5.70;99.90
9808;DHT22;4943;52.550;13.462;2023-01-20T11:55:21;5.70;99.90
9808;DHT22;4943;52.550;13.462;2023-01-20T11:57:54;5.80;99.90
9808;DHT22;4943;52.550;13.462;2023-01-20T12:00:30;5.90;99.90
9808;DHT22;4943;52.550;13.462;2023-01-20T12:02:59;6.00;99.90
9808;DHT22;4943;52.550;13.462;2023-01-20T12:05:33;6.00;99.90
9808;DHT22;4943;52.550;13.462;2023-01-20T12:08:12;6.00;99.90
9808;DHT22;4943;52.550;13.462;2023-01-20T12:10:44;6.00;99.90
9808;DHT22;4943;52.550;13.462;2023-01-20T12:13:17;6.00;99.90
9808;DHT22;4943;52.550;13.462;2023-01-20T12:15:49;6.10;99.90
9808;DHT22;4943;52.550;13.462;2023-01-20T12:18:30;6.10;99.90
9808;DHT22;4943;52.550;13.462;2023-01-20T12:21:01;6.10;99.90
9808;DHT22;4943;52.550;13.462;2023-01-20T12:23:42;6.10;99.90
9808;DHT22;4943;52.550;13.462;2023-01-20T12:26:17;6.10;99.90
9808;DHT22;4943;52.550;13.462;2023-01-20T12:28:57;6.10;99.90
9808;DHT22;4943;52.550;13.462;2023-01-20T12:31:26;6.00;99.90
9808;DHT22;4943;52.550;13.462;2023-01-20T12:33:58;5.90;99.90
9808;DHT22;4943;52.550;13.462;2023-01-20T12:36:37;5.80;99.90
9808;DHT22;4943;52.550;13.462;2023-01-20T12:39:24;5.70;99.90
9808;DHT22;4943;52.550;13.462;2023-01-20T12:42:12;5.70;99.90
9808;DHT22;4943;52.550;13.462;2023-01-20T12:44:46;5.60;99.90
9808;DHT22;4943;52.550;13.462;2023-01-20T12:47:26;5.70;99.90
9808;DHT22;4943;52.550;13.462;2023-01-20T12:50:10;5.80;99.90
9808;DHT22;4943;52.550;13.462;2023-01-20T12:52:47;5.80;99.90
9808;DHT22;4943;52.550;13.462;2023-01-20T12:55:28;5.80;99.90
9808;DHT22;4943;52.550;13.462;2023-01-20T12:58:06;5.80;99.90
9808;DHT22;4943;52.550;13.462;2023-01-20T13:00:46;5.70;99.90
9808;DHT22;4943;52.550;13.462;2023-01-20T13:03:46;5.70;99.90
9808;DHT22;4943;52.550;13.462;2023-01-20T13:09:24;5.60;99.90
9808;DHT22;4943;52.550;13.462;2023-01-20T13:12:13;5.60;99.90
9808;DHT22;4943;52.550;13.462;2023-01-20T13:14:46;5.60;99.90
9808;DHT22;4943;52.550;13.462;2023-01-20T13:17:20;5.70;99.90
9808;DHT22;4943;52.550;13.462;2023-01-20T13:19:56;5.70;99.90
9808;DHT22;4943;52.550;13.462;2023-01-20T13:22:25;5.70;99.90
9808;DHT22;4943;52.550;13.462;2023-01-20T13:24:54;5.80;99.90
9808;DHT22;4943;52.550;13.462;2023-01-20T13:27:26;5.90;99.90
9808;DHT22;4943;52.550;13.462;2023-01-20T13:29:57;6.00;99.90
9808;DHT22;4943;52.550;13.462;2023-01-20T13:32:30;6.10;99.90
9808;DHT22;4943;52.550;13.462;2023-01-20T13:35:00;6.10;99.90
9808;DHT22;4943;52.550;13.462;2023-01-20T13:37:33;6.10;99.90
9808;DHT22;4943;52.550;13.462;2023-01-20T13:40:03;6.20;99.90
9808;DHT22;4943;52.550;13.462;2023-01-20T13:42:48;6.20;99.90
9808;DHT22;4943;52.550;13.462;2023-01-20T13:45:20;6.20;99.90
9808;DHT22;4943;52.550;13.462;2023-01-20T13:48:00;6.30;99.90
9808;DHT22;4943;52.550;13.462;2023-01-20T13:50:31;6.30;99.90
9808;DHT22;4943;52.550;13.462;2023-01-20T13:53:15;6.30;99.90
9808;DHT22;4943;52.550;13.462;2023-01-20T13:55:52;6.30;99.90
9808;DHT22;4943;52.550;13.462;2023-01-20T13:58:23;6.30;99.90
9808;DHT22;4943;52.550;13.462;2023-01-20T14:00:53;6.20;99.90
9808;DHT22;4943;52.550;13.462;2023-01-20T14:03:27;6.20;99.90
9808;DHT22;4943;52.550;13.462;2023-01-20T14:05:57;6.20;99.90
9808;DHT22;4943;52.550;13.462;2023-01-20T14:08:28;6.10;99.90
9808;DHT22;4943;52.550;13.462;2023-01-20T14:11:06;6.00;99.90
9808;DHT22;4943;52.550;13.462;2023-01-20T14:13:36;6.00;99.90
9808;DHT22;4943;52.550;13.462;2023-01-20T14:16:04;6.00;99.90
9808;DHT22;4943;52.550;13.462;2023-01-20T14:18:33;6.00;99.90
9808;DHT22;4943;52.550;13.462;2023-01-20T14:21:04;6.00;99.90
9808;DHT22;4943;52.550;13.462;2023-01-20T14:23:43;6.00;99.90
9808;DHT22;4943;52.550;13.462;2023-01-20T14:26:13;6.00;99.90
9808;DHT22;4943;52.550;13.462;2023-01-20T14:28:49;5.90;99.90
9808;DHT22;4943;52.550;13.462;2023-01-20T14:31:19;5.90;99.90
9808;DHT22;4943;52.550;13.462;2023-01-20T14:33:52;5.80;99.90
9808;DHT22;4943;52.550;13.462;2023-01-20T14:36:22;5.90;99.90
9808;DHT22;4943;52.550;13.462;2023-01-20T14:38:53;5.80;99.90
9808;DHT22;4943;52.550;13.462;2023-01-20T14:41:26;5.70;99.90
9808;DHT22;4943;52.550;13.462;2023-01-20T14:43:56;5.70;99.90
9808;DHT22;4943;52.550;13.462;2023-01-20T14:46:26;5.70;99.90
9808;DHT22;4943;52.550;13.462;2023-01-20T14:48:55;5.60;99.90
9808;DHT22;4943;52.550;13.462;2023-01-20T14:51:24;5.60;99.90
9808;DHT22;4943;52.550;13.462;2023-01-20T14:54:27;5.60;99.90
9808;DHT22;4943;52.550;13.462;2023-01-20T14:56:57;5.60;99.90
9808;DHT22;4943;52.550;13.462;2023-01-20T14:59:27;5.50;99.90
9808;DHT22;4943;52.550;13.462;2023-01-20T15:01:59;5.50;99.90
9808;DHT22;4943;52.550;13.462;2023-01-20T15:04:34;5.50;99.90
9808;DHT22;4943;52.550;13.462;2023-01-20T15:07:03;5.50;99.90
9808;DHT22;4943;52.550;13.462;2023-01-20T15:09:33;5.50;99.90
9808;DHT22;4943;52.550;13.462;2023-01-20T15:12:29;5.50;99.90
9808;DHT22;4943;52.550;13.462;2023-01-20T15:15:13;5.50;99.90
9808;DHT22;4943;52.550;13.462;2023-01-20T15:18:02;5.50;99.90
9808;DHT22;4943;52.550;13.462;2023-01-20T15:20:32;5.50;99.90
9808;DHT22;4943;52.550;13.462;2023-01-20T15:23:01;5.50;99.90
9808;DHT22;4943;52.550;13.462;2023-01-20T15:25:29;5.50;99.90
9808;DHT22;4943;52.550;13.462;2023-01-20T15:27:58;5.50;99.90
9808;DHT22;4943;52.550;13.462;2023-01-20T15:30:27;5.50;99.90
9808;DHT22;4943;52.550;13.462;2023-01-20T15:32:55;5.50;99.90
9808;DHT22;4943;52.550;13.462;2023-01-20T15:35:24;5.40;99.90
9808;DHT22;4943;52.550;13.462;2023-01-20T15:37:53;5.40;99.90
9808;DHT22;4943;52.550;13.462;2023-01-20T15:40:23;5.30;99.90
9808;DHT22;4943;52.550;13.462;2023-01-20T15:42:51;5.30;99.90
9808;DHT22;4943;52.550;13.462;2023-01-20T15:45:20;5.30;99.90
9808;DHT22;4943;52.550;13.462;2023-01-20T15:47:50;5.30;99.90
9808;DHT22;4943;52.550;13.462;2023-01-20T15:50:21;5.20;99.90
9808;DHT22;4943;52.550;13.462;2023-01-20T15:52:50;5.20;99.90
9808;DHT22;4943;52.550;13.462;2023-01-20T15:55:18;5.20;99.90
9808;DHT22;4943;52.550;13.462;2023-01-20T15:57:49;5.20;99.90
9808;DHT22;4943;52.550;13.462;2023-01-20T16:00:20;5.20;99.90
9808;DHT22;4943;52.550;13.462;2023-01-20T16:02:50;5.20;99.90
9808;DHT22;4943;52.550;13.462;2023-01-20T16:05:18;5.20;99.90
9808;DHT22;4943;52.550;13.462;2023-01-20T16:07:46;5.20;99.90
9808;DHT22;4943;52.550;13.462;2023-01-20T16:10:16;5.10;99.90
9808;DHT22;4943;52.550;13.462;2023-01-20T16:12:45;5.10;99.90
9808;DHT22;4943;52.550;13.462;2023-01-20T16:15:14;5.10;99.90
9808;DHT22;4943;52.550;13.462;2023-01-20T16:17:43;5.10;99.90
9808;DHT22;4943;52.550;13.462;2023-01-20T16:20:18;5.10;99.90
9808;DHT22;4943;52.550;13.462;2023-01-20T16:22:46;5.00;99.90
9808;DHT22;4943;52.550;13.462;2023-01-20T16:25:15;5.00;99.90
9808;DHT22;4943;52.550;13.462;2023-01-20T16:27:43;5.00;99.90
9808;DHT22;4943;52.550;13.462;2023-01-20T16:30:16;5.10;99.90
9808;DHT22;4943;52.550;13.462;2023-01-20T16:32:45;5.10;99.90
9808;DHT22;4943;52.550;13.462;2023-01-20T16:35:14;5.00;99.90
9808;DHT22;4943;52.550;13.462;2023-01-20T16:37:45;5.00;99.90